sensor_id;sensor_type;location;lat;lon;timestamp;P1;durP1;ratioP1;P2;durP2;ratioP2
19207;SDS011;9737;59.466;18.036;2023-09-07T00:01:15;5.70;;;3.00;;
19207;SDS011;9737;59.466;18.036;2023-09-07T00:03:43;7.45;;;3.20;;
19207;SDS011;9737;59.466;18.036;2023-09-07T00:06:12;5.47;;;3.00;;
19207;SDS011;9737;59.466;18.036;2023-09-07T00:08:40;7.20;;;3.00;;
19207;SDS011;9737;59.466;18.036;2023-09-07T00:11:08;6.05;;;3.03;;
19207;SDS011;9737;59.466;18.036;2023-09-07T00:13:36;6.90;;;3.10;;
19207;SDS011;9737;59.466;18.036;2023-09-07T00:16:06;8.10;;;3.20;;
19207;SDS011;9737;59.466;18.036;2023-09-07T00:18:36;5.43;;;2.90;;
19207;SDS011;9737;59.466;18.036;2023-09-07T00:21:03;5.38;;;2.95;;
19207;SDS011;9737;59.466;18.036;2023-09-07T00:23:31;3.30;;;2.85;;
19207;SDS011;9737;59.466;18.036;2023-09-07T00:26:00;4.22;;;3.00;;
19207;SDS011;9737;59.466;18.036;2023-09-07T00:28:28;6.68;;;3.20;;
19207;SDS011;9737;59.466;18.036;2023-09-07T00:30:57;8.48;;;2.90;;
19207;SDS011;9737;59.466;18.036;2023-09-07T00:33:26;4.60;;;2.85;;
19207;SDS011;9737;59.466;18.036;2023-09-07T00:35:54;4.22;;;2.80;;
19207;SDS011;9737;59.466;18.036;2023-09-07T00:38:22;5.38;;;2.78;;
19207;SDS011;9737;59.466;18.036;2023-09-07T00:40:50;6.10;;;2.70;;
19207;SDS011;9737;59.466;18.036;2023-09-07T00:43:18;8.52;;;2.83;;
19207;SDS011;9737;59.466;18.036;2023-09-07T00:45:45;7.63;;;3.13;;
19207;SDS011;9737;59.466;18.036;2023-09-07T00:48:14;5.03;;;3.05;;
19207;SDS011;9737;59.466;18.036;2023-09-07T00:50:44;7.32;;;3.10;;
19207;SDS011;9737;59.466;18.036;2023-09-07T00:53:13;8.80;;;3.08;;
19207;SDS011;9737;59.466;18.036;2023-09-07T00:55:42;6.75;;;2.90;;
19207;SDS011;9737;59.466;18.036;2023-09-07T00:58:10;6.60;;;3.10;;
19207;SDS011;9737;59.466;18.036;2023-09-07T01:00:39;6.10;;;2.83;;
19207;SDS011;9737;59.466;18.036;2023-09-07T01:03:07;4.40;;;2.80;;
19207;SDS011;9737;59.466;18.036;2023-09-07T01:05:39;3.92;;;2.83;;
19207;SDS011;9737;59.466;18.036;2023-09-07T01:08:17;5.30;;;2.95;;
19207;SDS011;9737;59.466;18.036;2023-09-07T01:10:50;4.57;;;2.88;;
19207;SDS011;9737;59.466;18.036;2023-09-07T01:13:18;7.93;;;2.95;;
19207;SDS011;9737;59.466;18.036;2023-09-07T01:15:46;7.28;;;2.90;;
19207;SDS011;9737;59.466;18.036;2023-09-07T01:18:15;6.22;;;2.97;;
19207;SDS011;9737;59.466;18.036;2023-09-07T01:20:51;5.75;;;2.90;;
19207;SDS011;9737;59.466;18.036;2023-09-07T01:23:23;6.97;;;3.10;;
19207;SDS011;9737;59.466;18.036;2023-09-07T01:25:51;9.38;;;2.65;;
19207;SDS011;9737;59.466;18.036;2023-09-07T01:28:20;5.00;;;3.00;;
19207;SDS011;9737;59.466;18.036;2023-09-07T01:30:48;5.68;;;2.95;;
19207;SDS011;9737;59.466;18.036;2023-09-07T01:33:19;7.63;;;3.00;;
19207;SDS011;9737;59.466;18.036;2023-09-07T01:35:47;5.15;;;2.90;;
19207;SDS011;9737;59.466;18.036;2023-09-07T01:38:15;3.90;;;2.67;;
19207;SDS011;9737;59.466;18.036;2023-09-07T01:40:44;5.85;;;2.97;;
19207;SDS011;9737;59.466;18.036;2023-09-07T01:43:12;7.85;;;2.90;;
19207;SDS011;9737;59.466;18.036;2023-09-07T01:45:40;7.72;;;3.30;;
19207;SDS011;9737;59.466;18.036;2023-09-07T01:48:08;8.30;;;3.10;;
19207;SDS011;9737;59.466;18.036;2023-09-07T01:50:36;4.00;;;2.90;;
19207;SDS011;9737;59.466;18.036;2023-09-07T01:53:04;4.45;;;2.97;;
19207;SDS011;9737;59.466;18.036;2023-09-07T01:55:32;12.23;;;2.90;;
19207;SDS011;9737;59.466;18.036;2023-09-07T01:58:02;4.70;;;3.00;;
19207;SDS011;9737;59.466;18.036;2023-09-07T02:00:30;6.88;;;3.25;;
19207;SDS011;9737;59.466;18.036;2023-09-07T02:03:03;7.75;;;2.88;;
19207;SDS011;9737;59.466;18.036;2023-09-07T02:05:31;5.43;;;2.72;;
19207;SDS011;9737;59.466;18.036;2023-09-07T02:07:59;6.05;;;3.22;;
19207;SDS011;9737;59.466;18.036;2023-09-07T02:10:29;5.18;;;3.00;;
19207;SDS011;9737;59.466;18.036;2023-09-07T02:12:57;4.07;;;2.63;;
19207;SDS011;9737;59.466;18.036;2023-09-07T02:15:27;8.63;;;3.25;;
19207;SDS011;9737;59.466;18.036;2023-09-07T02:17:54;8.18;;;3.42;;
19207;SDS011;9737;59.466;18.036;2023-09-07T02:20:22;6.68;;;2.90;;
19207;SDS011;9737;59.466;18.036;2023-09-07T02:22:50;9.68;;;3.40;;
19207;SDS011;9737;59.466;18.036;2023-09-07T02:25:18;10.95;;;3.75;;
19207;SDS011;9737;59.466;18.036;2023-09-07T02:27:46;13.15;;;3.75;;
19207;SDS011;9737;59.466;18.036;2023-09-07T02:30:14;14.00;;;4.35;;
19207;SDS011;9737;59.466;18.036;2023-09-07T02:32:43;8.68;;;3.92;;
19207;SDS011;9737;59.466;18.036;2023-09-07T02:35:11;12.05;;;4.07;;
19207;SDS011;9737;59.466;18.036;2023-09-07T02:37:39;8.38;;;3.72;;
19207;SDS011;9737;59.466;18.036;2023-09-07T02:40:07;11.68;;;3.45;;
19207;SDS011;9737;59.466;18.036;2023-09-07T02:42:35;8.60;;;3.80;;
19207;SDS011;9737;59.466;18.036;2023-09-07T02:45:04;6.40;;;3.17;;
19207;SDS011;9737;59.466;18.036;2023-09-07T02:47:32;7.95;;;3.33;;
19207;SDS011;9737;59.466;18.036;2023-09-07T02:50:01;5.97;;;3.20;;
19207;SDS011;9737;59.466;18.036;2023-09-07T02:52:30;7.07;;;3.47;;
19207;SDS011;9737;59.466;18.036;2023-09-07T02:54:58;9.63;;;3.10;;
19207;SDS011;9737;59.466;18.036;2023-09-07T02:57:26;6.72;;;3.38;;
19207;SDS011;9737;59.466;18.036;2023-09-07T02:59:54;12.25;;;3.60;;
19207;SDS011;9737;59.466;18.036;2023-09-07T03:02:22;7.30;;;3.55;;
19207;SDS011;9737;59.466;18.036;2023-09-07T03:04:52;12.82;;;4.05;;
19207;SDS011;9737;59.466;18.036;2023-09-07T03:07:23;11.40;;;3.92;;
19207;SDS011;9737;59.466;18.036;2023-09-07T03:09:51;15.73;;;3.45;;
19207;SDS011;9737;59.466;18.036;2023-09-07T03:12:19;10.98;;;3.78;;
19207;SDS011;9737;59.466;18.036;2023-09-07T03:14:47;11.18;;;4.03;;
19207;SDS011;9737;59.466;18.036;2023-09-07T03:17:16;8.93;;;3.70;;
19207;SDS011;9737;59.466;18.036;2023-09-07T03:19:47;6.65;;;3.50;;
19207;SDS011;9737;59.466;18.036;2023-09-07T03:22:15;10.70;;;3.75;;
19207;SDS011;9737;59.466;18.036;2023-09-07T03:24:44;13.25;;;4.50;;
19207;SDS011;9737;59.466;18.036;2023-09-07T03:27:12;13.13;;;4.20;;
19207;SDS011;9737;59.466;18.036;2023-09-07T03:29:40;8.10;;;3.83;;
19207;SDS011;9737;59.466;18.036;2023-09-07T03:32:08;9.48;;;3.90;;
19207;SDS011;9737;59.466;18.036;2023-09-07T03:34:36;12.02;;;3.70;;
19207;SDS011;9737;59.466;18.036;2023-09-07T03:37:04;10.48;;;3.67;;
19207;SDS011;9737;59.466;18.036;2023-09-07T03:39:32;8.07;;;3.58;;
19207;SDS011;9737;59.466;18.036;2023-09-07T03:42:02;8.35;;;3.83;;
19207;SDS011;9737;59.466;18.036;2023-09-07T03:44:30;8.90;;;3.78;;
19207;SDS011;9737;59.466;18.036;2023-09-07T03:47:00;10.23;;;3.80;;
19207;SDS011;9737;59.466;18.036;2023-09-07T03:49:28;7.80;;;3.75;;
19207;SDS011;9737;59.466;18.036;2023-09-07T03:51:56;8.63;;;3.70;;
19207;SDS011;9737;59.466;18.036;2023-09-07T03:54:24;11.18;;;3.83;;
19207;SDS011;9737;59.466;18.036;2023-09-07T03:56:52;7.85;;;3.92;;
19207;SDS011;9737;59.466;18.036;2023-09-07T03:59:21;7.80;;;4.40;;
19207;SDS011;9737;59.466;18.036;2023-09-07T04:01:49;7.78;;;3.85;;
19207;SDS011;9737;59.466;18.036;2023-09-07T04:04:17;8.95;;;3.80;;
19207;SDS011;9737;59.466;18.036;2023-09-07T04:06:46;8.35;;;3.80;;
19207;SDS011;9737;59.466;18.036;2023-09-07T04:09:14;12.63;;;4.00;;
19207;SDS011;9737;59.466;18.036;2023-09-07T04:11:42;20.98;;;4.45;;
19207;SDS011;9737;59.466;18.036;2023-09-07T04:14:09;13.25;;;3.85;;
19207;SDS011;9737;59.466;18.036;2023-09-07T04:16:39;15.05;;;4.10;;
19207;SDS011;9737;59.466;18.036;2023-09-07T04:19:09;10.25;;;3.83;;
19207;SDS011;9737;59.466;18.036;2023-09-07T04:21:37;11.10;;;3.65;;
19207;SDS011;9737;59.466;18.036;2023-09-07T04:24:06;14.43;;;4.05;;
19207;SDS011;9737;59.466;18.036;2023-09-07T04:26:34;15.13;;;4.40;;
19207;SDS011;9737;59.466;18.036;2023-09-07T04:29:03;6.43;;;3.25;;
19207;SDS011;9737;59.466;18.036;2023-09-07T04:31:31;13.93;;;5.05;;
19207;SDS011;9737;59.466;18.036;2023-09-07T04:34:00;16.77;;;4.50;;
19207;SDS011;9737;59.466;18.036;2023-09-07T04:36:29;19.10;;;4.40;;
19207;SDS011;9737;59.466;18.036;2023-09-07T04:38:57;17.38;;;4.32;;
19207;SDS011;9737;59.466;18.036;2023-09-07T04:41:25;12.65;;;4.70;;
19207;SDS011;9737;59.466;18.036;2023-09-07T04:43:52;13.57;;;4.63;;
19207;SDS011;9737;59.466;18.036;2023-09-07T04:46:21;9.88;;;4.40;;
19207;SDS011;9737;59.466;18.036;2023-09-07T04:48:50;9.90;;;5.13;;
19207;SDS011;9737;59.466;18.036;2023-09-07T04:51:19;10.77;;;5.10;;
19207;SDS011;9737;59.466;18.036;2023-09-07T04:53:48;10.30;;;6.30;;
19207;SDS011;9737;59.466;18.036;2023-09-07T04:56:18;11.77;;;5.93;;
19207;SDS011;9737;59.466;18.036;2023-09-07T04:58:48;12.18;;;5.70;;
19207;SDS011;9737;59.466;18.036;2023-09-07T05:01:16;18.13;;;5.32;;
19207;SDS011;9737;59.466;18.036;2023-09-07T05:03:44;16.23;;;5.20;;
19207;SDS011;9737;59.466;18.036;2023-09-07T05:06:12;10.57;;;5.32;;
19207;SDS011;9737;59.466;18.036;2023-09-07T05:08:41;12.13;;;4.65;;
19207;SDS011;9737;59.466;18.036;2023-09-07T05:11:09;17.55;;;5.22;;
19207;SDS011;9737;59.466;18.036;2023-09-07T05:13:37;13.35;;;5.20;;
19207;SDS011;9737;59.466;18.036;2023-09-07T05:16:05;14.95;;;5.10;;
19207;SDS011;9737;59.466;18.036;2023-09-07T05:18:33;13.63;;;5.55;;
19207;SDS011;9737;59.466;18.036;2023-09-07T05:21:10;15.55;;;5.10;;
19207;SDS011;9737;59.466;18.036;2023-09-07T05:23:39;11.43;;;5.50;;
19207;SDS011;9737;59.466;18.036;2023-09-07T05:26:08;17.77;;;5.43;;
19207;SDS011;9737;59.466;18.036;2023-09-07T05:28:37;18.77;;;6.00;;
19207;SDS011;9737;59.466;18.036;2023-09-07T05:31:06;15.40;;;5.32;;
19207;SDS011;9737;59.466;18.036;2023-09-07T05:33:35;10.95;;;5.18;;
19207;SDS011;9737;59.466;18.036;2023-09-07T05:36:03;11.55;;;4.50;;
19207;SDS011;9737;59.466;18.036;2023-09-07T05:38:31;16.23;;;5.20;;
19207;SDS011;9737;59.466;18.036;2023-09-07T05:40:59;14.32;;;6.05;;
19207;SDS011;9737;59.466;18.036;2023-09-07T05:43:29;12.52;;;5.13;;
19207;SDS011;9737;59.466;18.036;2023-09-07T05:45:57;14.57;;;4.97;;
19207;SDS011;9737;59.466;18.036;2023-09-07T05:48:25;10.75;;;4.65;;
19207;SDS011;9737;59.466;18.036;2023-09-07T05:50:53;12.82;;;4.75;;
19207;SDS011;9737;59.466;18.036;2023-09-07T05:53:21;9.70;;;3.80;;
19207;SDS011;9737;59.466;18.036;2023-09-07T05:55:51;9.75;;;3.17;;
19207;SDS011;9737;59.466;18.036;2023-09-07T05:58:19;6.35;;;3.10;;
19207;SDS011;9737;59.466;18.036;2023-09-07T06:00:48;6.22;;;2.30;;
19207;SDS011;9737;59.466;18.036;2023-09-07T06:03:16;5.18;;;2.53;;
19207;SDS011;9737;59.466;18.036;2023-09-07T06:05:44;4.00;;;2.30;;
19207;SDS011;9737;59.466;18.036;2023-09-07T06:08:12;8.68;;;2.35;;
19207;SDS011;9737;59.466;18.036;2023-09-07T06:10:40;10.60;;;1.80;;
19207;SDS011;9737;59.466;18.036;2023-09-07T06:13:08;6.15;;;2.08;;
19207;SDS011;9737;59.466;18.036;2023-09-07T06:15:36;3.60;;;2.22;;
19207;SDS011;9737;59.466;18.036;2023-09-07T06:18:05;4.80;;;1.88;;
19207;SDS011;9737;59.466;18.036;2023-09-07T06:20:33;4.40;;;2.20;;
19207;SDS011;9737;59.466;18.036;2023-09-07T06:23:01;8.57;;;2.33;;
19207;SDS011;9737;59.466;18.036;2023-09-07T06:25:29;5.57;;;2.10;;
19207;SDS011;9737;59.466;18.036;2023-09-07T06:27:57;5.70;;;2.17;;
19207;SDS011;9737;59.466;18.036;2023-09-07T06:30:25;5.35;;;2.10;;
19207;SDS011;9737;59.466;18.036;2023-09-07T06:32:53;6.10;;;2.00;;
19207;SDS011;9737;59.466;18.036;2023-09-07T06:35:24;7.13;;;2.45;;
19207;SDS011;9737;59.466;18.036;2023-09-07T06:37:51;4.28;;;1.90;;
19207;SDS011;9737;59.466;18.036;2023-09-07T06:40:19;7.13;;;2.20;;
19207;SDS011;9737;59.466;18.036;2023-09-07T06:42:47;4.88;;;1.90;;
19207;SDS011;9737;59.466;18.036;2023-09-07T06:45:15;6.40;;;1.90;;
19207;SDS011;9737;59.466;18.036;2023-09-07T06:47:43;3.95;;;1.98;;
19207;SDS011;9737;59.466;18.036;2023-09-07T06:50:11;3.28;;;1.80;;
19207;SDS011;9737;59.466;18.036;2023-09-07T06:52:40;4.32;;;1.90;;
19207;SDS011;9737;59.466;18.036;2023-09-07T06:55:08;4.30;;;1.67;;
19207;SDS011;9737;59.466;18.036;2023-09-07T06:57:36;6.18;;;2.05;;
19207;SDS011;9737;59.466;18.036;2023-09-07T07:00:05;3.85;;;1.67;;
19207;SDS011;9737;59.466;18.036;2023-09-07T07:02:34;3.53;;;1.80;;
19207;SDS011;9737;59.466;18.036;2023-09-07T07:05:02;5.88;;;1.83;;
19207;SDS011;9737;59.466;18.036;2023-09-07T07:07:30;6.03;;;2.00;;
19207;SDS011;9737;59.466;18.036;2023-09-07T07:10:00;4.13;;;2.03;;
19207;SDS011;9737;59.466;18.036;2023-09-07T07:12:27;7.10;;;1.70;;
19207;SDS011;9737;59.466;18.036;2023-09-07T07:14:55;6.15;;;1.98;;
19207;SDS011;9737;59.466;18.036;2023-09-07T07:17:23;6.43;;;2.10;;
19207;SDS011;9737;59.466;18.036;2023-09-07T07:19:51;10.65;;;3.00;;
19207;SDS011;9737;59.466;18.036;2023-09-07T07:22:19;6.93;;;2.88;;
19207;SDS011;9737;59.466;18.036;2023-09-07T07:24:47;5.18;;;1.88;;
19207;SDS011;9737;59.466;18.036;2023-09-07T07:27:16;8.00;;;1.92;;
19207;SDS011;9737;59.466;18.036;2023-09-07T07:29:44;3.33;;;2.00;;
19207;SDS011;9737;59.466;18.036;2023-09-07T07:32:12;5.95;;;2.03;;
19207;SDS011;9737;59.466;18.036;2023-09-07T07:34:40;5.95;;;1.80;;
19207;SDS011;9737;59.466;18.036;2023-09-07T07:37:08;4.72;;;2.10;;
19207;SDS011;9737;59.466;18.036;2023-09-07T07:39:36;4.70;;;1.90;;
19207;SDS011;9737;59.466;18.036;2023-09-07T07:42:04;4.05;;;2.00;;
19207;SDS011;9737;59.466;18.036;2023-09-07T07:44:33;4.22;;;2.00;;
19207;SDS011;9737;59.466;18.036;2023-09-07T07:47:01;3.38;;;1.83;;
19207;SDS011;9737;59.466;18.036;2023-09-07T07:49:29;6.38;;;1.80;;
19207;SDS011;9737;59.466;18.036;2023-09-07T07:51:58;8.75;;;2.00;;
19207;SDS011;9737;59.466;18.036;2023-09-07T07:54:26;5.18;;;1.88;;
19207;SDS011;9737;59.466;18.036;2023-09-07T07:56:55;4.13;;;1.80;;
19207;SDS011;9737;59.466;18.036;2023-09-07T07:59:23;3.15;;;1.92;;
19207;SDS011;9737;59.466;18.036;2023-09-07T08:01:52;8.40;;;1.85;;
19207;SDS011;9737;59.466;18.036;2023-09-07T08:04:20;5.43;;;1.83;;
19207;SDS011;9737;59.466;18.036;2023-09-07T08:06:48;4.70;;;2.00;;
19207;SDS011;9737;59.466;18.036;2023-09-07T08:09:15;6.57;;;2.05;;
19207;SDS011;9737;59.466;18.036;2023-09-07T08:11:43;4.38;;;1.75;;
19207;SDS011;9737;59.466;18.036;2023-09-07T08:14:11;4.78;;;1.67;;
19207;SDS011;9737;59.466;18.036;2023-09-07T08:16:39;3.85;;;1.80;;
19207;SDS011;9737;59.466;18.036;2023-09-07T08:19:08;9.98;;;2.03;;
19207;SDS011;9737;59.466;18.036;2023-09-07T08:21:36;3.28;;;1.70;;
19207;SDS011;9737;59.466;18.036;2023-09-07T08:24:04;6.07;;;1.70;;
19207;SDS011;9737;59.466;18.036;2023-09-07T08:26:33;5.70;;;1.73;;
19207;SDS011;9737;59.466;18.036;2023-09-07T08:29:03;2.38;;;1.63;;
19207;SDS011;9737;59.466;18.036;2023-09-07T08:31:32;7.10;;;1.70;;
19207;SDS011;9737;59.466;18.036;2023-09-07T08:34:00;2.97;;;1.60;;
19207;SDS011;9737;59.466;18.036;2023-09-07T08:36:31;1.75;;;1.50;;
19207;SDS011;9737;59.466;18.036;2023-09-07T08:39:00;8.15;;;1.88;;
19207;SDS011;9737;59.466;18.036;2023-09-07T08:41:34;5.25;;;2.20;;
19207;SDS011;9737;59.466;18.036;2023-09-07T08:44:26;3.38;;;1.70;;
19207;SDS011;9737;59.466;18.036;2023-09-07T08:46:55;3.08;;;1.55;;
19207;SDS011;9737;59.466;18.036;2023-09-07T08:49:23;6.30;;;2.08;;
19207;SDS011;9737;59.466;18.036;2023-09-07T08:51:53;2.30;;;1.77;;
19207;SDS011;9737;59.466;18.036;2023-09-07T08:54:25;3.60;;;1.70;;
19207;SDS011;9737;59.466;18.036;2023-09-07T08:56:53;4.03;;;1.52;;
19207;SDS011;9737;59.466;18.036;2023-09-07T08:59:23;4.20;;;1.70;;
19207;SDS011;9737;59.466;18.036;2023-09-07T09:01:55;6.57;;;2.28;;
19207;SDS011;9737;59.466;18.036;2023-09-07T09:04:25;3.25;;;1.70;;
19207;SDS011;9737;59.466;18.036;2023-09-07T09:06:56;5.18;;;1.40;;
19207;SDS011;9737;59.466;18.036;2023-09-07T09:09:25;3.25;;;1.55;;
19207;SDS011;9737;59.466;18.036;2023-09-07T09:11:53;3.25;;;1.70;;
19207;SDS011;9737;59.466;18.036;2023-09-07T09:14:21;9.18;;;1.60;;
19207;SDS011;9737;59.466;18.036;2023-09-07T09:16:49;3.00;;;1.70;;
19207;SDS011;9737;59.466;18.036;2023-09-07T09:19:18;3.00;;;1.75;;
19207;SDS011;9737;59.466;18.036;2023-09-07T09:21:45;5.60;;;1.83;;
19207;SDS011;9737;59.466;18.036;2023-09-07T09:24:16;7.10;;;1.73;;
19207;SDS011;9737;59.466;18.036;2023-09-07T09:26:44;2.72;;;1.52;;
19207;SDS011;9737;59.466;18.036;2023-09-07T09:29:12;2.63;;;1.77;;
19207;SDS011;9737;59.466;18.036;2023-09-07T09:31:41;5.13;;;1.48;;
19207;SDS011;9737;59.466;18.036;2023-09-07T09:34:10;4.40;;;1.50;;
19207;SDS011;9737;59.466;18.036;2023-09-07T09:36:40;3.45;;;1.50;;
19207;SDS011;9737;59.466;18.036;2023-09-07T09:39:09;4.38;;;2.08;;
19207;SDS011;9737;59.466;18.036;2023-09-07T09:41:39;3.58;;;1.80;;
19207;SDS011;9737;59.466;18.036;2023-09-07T09:44:07;4.47;;;1.90;;
19207;SDS011;9737;59.466;18.036;2023-09-07T09:46:36;4.10;;;1.77;;
19207;SDS011;9737;59.466;18.036;2023-09-07T09:49:06;4.40;;;1.85;;
19207;SDS011;9737;59.466;18.036;2023-09-07T09:51:38;3.05;;;1.50;;
19207;SDS011;9737;59.466;18.036;2023-09-07T09:54:10;4.47;;;1.88;;
19207;SDS011;9737;59.466;18.036;2023-09-07T09:56:40;5.15;;;1.92;;
19207;SDS011;9737;59.466;18.036;2023-09-07T09:59:08;2.75;;;1.77;;
19207;SDS011;9737;59.466;18.036;2023-09-07T10:01:37;6.07;;;1.50;;
19207;SDS011;9737;59.466;18.036;2023-09-07T10:04:09;4.75;;;1.80;;
19207;SDS011;9737;59.466;18.036;2023-09-07T10:06:38;2.05;;;1.50;;
19207;SDS011;9737;59.466;18.036;2023-09-07T10:09:06;2.30;;;1.48;;
19207;SDS011;9737;59.466;18.036;2023-09-07T10:11:37;3.50;;;1.50;;
19207;SDS011;9737;59.466;18.036;2023-09-07T10:14:07;3.53;;;1.65;;
19207;SDS011;9737;59.466;18.036;2023-09-07T10:16:41;2.75;;;1.42;;
19207;SDS011;9737;59.466;18.036;2023-09-07T10:19:16;2.13;;;1.55;;
19207;SDS011;9737;59.466;18.036;2023-09-07T10:21:45;3.95;;;1.40;;
19207;SDS011;9737;59.466;18.036;2023-09-07T10:24:23;5.38;;;1.80;;
19207;SDS011;9737;59.466;18.036;2023-09-07T10:26:58;2.55;;;1.38;;
19207;SDS011;9737;59.466;18.036;2023-09-07T10:29:29;2.97;;;1.65;;
19207;SDS011;9737;59.466;18.036;2023-09-07T10:32:07;3.45;;;1.90;;
19207;SDS011;9737;59.466;18.036;2023-09-07T10:34:37;4.43;;;1.48;;
19207;SDS011;9737;59.466;18.036;2023-09-07T10:37:05;2.97;;;1.95;;
19207;SDS011;9737;59.466;18.036;2023-09-07T10:39:36;4.15;;;1.70;;
19207;SDS011;9737;59.466;18.036;2023-09-07T10:42:06;2.50;;;1.60;;
19207;SDS011;9737;59.466;18.036;2023-09-07T10:44:35;5.28;;;1.85;;
19207;SDS011;9737;59.466;18.036;2023-09-07T10:47:03;3.55;;;1.70;;
19207;SDS011;9737;59.466;18.036;2023-09-07T10:49:31;2.88;;;1.70;;
19207;SDS011;9737;59.466;18.036;2023-09-07T10:51:59;3.25;;;1.73;;
19207;SDS011;9737;59.466;18.036;2023-09-07T10:54:27;4.05;;;1.70;;
19207;SDS011;9737;59.466;18.036;2023-09-07T10:56:55;3.28;;;1.90;;
19207;SDS011;9737;59.466;18.036;2023-09-07T10:59:27;4.50;;;1.50;;
19207;SDS011;9737;59.466;18.036;2023-09-07T11:01:57;4.55;;;1.80;;
19207;SDS011;9737;59.466;18.036;2023-09-07T11:04:31;4.18;;;1.75;;
19207;SDS011;9737;59.466;18.036;2023-09-07T11:07:00;2.72;;;1.50;;
19207;SDS011;9737;59.466;18.036;2023-09-07T11:09:30;4.60;;;1.73;;
19207;SDS011;9737;59.466;18.036;2023-09-07T11:12:03;2.42;;;1.70;;
19207;SDS011;9737;59.466;18.036;2023-09-07T11:14:31;2.40;;;1.55;;
19207;SDS011;9737;59.466;18.036;2023-09-07T11:17:01;5.20;;;1.55;;
19207;SDS011;9737;59.466;18.036;2023-09-07T11:19:31;2.97;;;1.50;;
19207;SDS011;9737;59.466;18.036;2023-09-07T11:21:59;2.38;;;1.58;;
19207;SDS011;9737;59.466;18.036;2023-09-07T11:24:30;5.63;;;1.83;;
19207;SDS011;9737;59.466;18.036;2023-09-07T11:27:00;3.03;;;1.73;;
19207;SDS011;9737;59.466;18.036;2023-09-07T11:29:30;2.10;;;1.50;;
19207;SDS011;9737;59.466;18.036;2023-09-07T11:32:06;4.78;;;1.50;;
19207;SDS011;9737;59.466;18.036;2023-09-07T11:34:35;2.67;;;1.60;;
19207;SDS011;9737;59.466;18.036;2023-09-07T11:37:14;7.32;;;1.90;;
19207;SDS011;9737;59.466;18.036;2023-09-07T11:39:42;4.95;;;2.00;;
19207;SDS011;9737;59.466;18.036;2023-09-07T11:42:10;1.95;;;1.77;;
19207;SDS011;9737;59.466;18.036;2023-09-07T11:44:38;4.13;;;2.00;;
19207;SDS011;9737;59.466;18.036;2023-09-07T11:47:07;4.82;;;2.00;;
19207;SDS011;9737;59.466;18.036;2023-09-07T11:49:35;4.25;;;1.90;;
19207;SDS011;9737;59.466;18.036;2023-09-07T11:52:03;3.85;;;1.90;;
19207;SDS011;9737;59.466;18.036;2023-09-07T11:54:32;1.90;;;1.50;;
19207;SDS011;9737;59.466;18.036;2023-09-07T11:56:59;3.65;;;1.98;;
19207;SDS011;9737;59.466;18.036;2023-09-07T11:59:27;4.43;;;2.40;;
19207;SDS011;9737;59.466;18.036;2023-09-07T12:02:11;4.95;;;2.28;;
19207;SDS011;9737;59.466;18.036;2023-09-07T12:04:41;6.18;;;2.15;;
19207;SDS011;9737;59.466;18.036;2023-09-07T12:07:09;2.75;;;1.80;;
19207;SDS011;9737;59.466;18.036;2023-09-07T12:09:37;3.17;;;1.70;;
19207;SDS011;9737;59.466;18.036;2023-09-07T12:12:05;3.45;;;2.00;;
19207;SDS011;9737;59.466;18.036;2023-09-07T12:14:33;5.35;;;2.05;;
19207;SDS011;9737;59.466;18.036;2023-09-07T12:17:01;3.75;;;1.48;;
19207;SDS011;9737;59.466;18.036;2023-09-07T12:19:31;4.43;;;1.70;;
19207;SDS011;9737;59.466;18.036;2023-09-07T12:21:59;12.95;;;2.60;;
19207;SDS011;9737;59.466;18.036;2023-09-07T12:24:27;5.53;;;1.80;;
19207;SDS011;9737;59.466;18.036;2023-09-07T12:26:55;4.72;;;1.90;;
19207;SDS011;9737;59.466;18.036;2023-09-07T12:29:23;7.25;;;1.73;;
19207;SDS011;9737;59.466;18.036;2023-09-07T12:31:51;4.85;;;1.65;;
19207;SDS011;9737;59.466;18.036;2023-09-07T12:34:19;4.95;;;1.50;;
19207;SDS011;9737;59.466;18.036;2023-09-07T12:36:48;6.13;;;1.60;;
19207;SDS011;9737;59.466;18.036;2023-09-07T12:39:16;2.67;;;1.50;;
19207;SDS011;9737;59.466;18.036;2023-09-07T12:41:44;3.80;;;1.50;;
19207;SDS011;9737;59.466;18.036;2023-09-07T12:44:12;4.32;;;1.40;;
19207;SDS011;9737;59.466;18.036;2023-09-07T12:46:40;9.68;;;1.83;;
19207;SDS011;9737;59.466;18.036;2023-09-07T12:49:08;6.55;;;1.40;;
19207;SDS011;9737;59.466;18.036;2023-09-07T12:51:35;4.03;;;1.42;;
19207;SDS011;9737;59.466;18.036;2023-09-07T12:54:05;5.18;;;1.40;;
19207;SDS011;9737;59.466;18.036;2023-09-07T12:56:33;2.65;;;1.40;;
19207;SDS011;9737;59.466;18.036;2023-09-07T12:59:01;5.30;;;1.58;;
19207;SDS011;9737;59.466;18.036;2023-09-07T13:01:30;8.73;;;1.63;;
19207;SDS011;9737;59.466;18.036;2023-09-07T13:03:59;4.75;;;1.33;;
19207;SDS011;9737;59.466;18.036;2023-09-07T13:06:27;4.30;;;1.30;;
19207;SDS011;9737;59.466;18.036;2023-09-07T13:08:54;4.68;;;1.67;;
19207;SDS011;9737;59.466;18.036;2023-09-07T13:11:24;2.35;;;1.20;;
19207;SDS011;9737;59.466;18.036;2023-09-07T13:13:52;2.42;;;1.10;;
19207;SDS011;9737;59.466;18.036;2023-09-07T13:16:20;3.80;;;1.30;;
19207;SDS011;9737;59.466;18.036;2023-09-07T13:18:48;4.50;;;1.40;;
19207;SDS011;9737;59.466;18.036;2023-09-07T13:21:16;2.55;;;1.40;;
19207;SDS011;9737;59.466;18.036;2023-09-07T13:23:43;2.53;;;1.20;;
19207;SDS011;9737;59.466;18.036;2023-09-07T13:26:13;3.38;;;1.30;;
19207;SDS011;9737;59.466;18.036;2023-09-07T13:28:42;5.47;;;1.45;;
19207;SDS011;9737;59.466;18.036;2023-09-07T13:31:10;6.22;;;1.73;;
19207;SDS011;9737;59.466;18.036;2023-09-07T13:33:38;4.18;;;1.48;;
19207;SDS011;9737;59.466;18.036;2023-09-07T13:36:05;3.85;;;1.50;;
19207;SDS011;9737;59.466;18.036;2023-09-07T13:38:36;4.30;;;1.60;;
19207;SDS011;9737;59.466;18.036;2023-09-07T13:41:04;6.28;;;1.50;;
19207;SDS011;9737;59.466;18.036;2023-09-07T13:43:31;4.28;;;1.40;;
19207;SDS011;9737;59.466;18.036;2023-09-07T13:46:01;3.65;;;1.83;;
19207;SDS011;9737;59.466;18.036;2023-09-07T13:48:30;4.82;;;1.60;;
19207;SDS011;9737;59.466;18.036;2023-09-07T13:50:59;3.60;;;1.40;;
19207;SDS011;9737;59.466;18.036;2023-09-07T13:53:27;6.28;;;1.63;;
19207;SDS011;9737;59.466;18.036;2023-09-07T13:55:55;3.28;;;1.67;;
19207;SDS011;9737;59.466;18.036;2023-09-07T13:58:23;4.05;;;1.35;;
19207;SDS011;9737;59.466;18.036;2023-09-07T14:00:51;5.30;;;1.48;;
19207;SDS011;9737;59.466;18.036;2023-09-07T14:03:20;4.43;;;1.70;;
19207;SDS011;9737;59.466;18.036;2023-09-07T14:05:48;4.95;;;1.50;;
19207;SDS011;9737;59.466;18.036;2023-09-07T14:08:17;6.43;;;1.60;;
19207;SDS011;9737;59.466;18.036;2023-09-07T14:10:49;7.38;;;1.50;;
19207;SDS011;9737;59.466;18.036;2023-09-07T14:13:17;3.92;;;1.33;;
19207;SDS011;9737;59.466;18.036;2023-09-07T14:15:46;5.55;;;1.67;;
19207;SDS011;9737;59.466;18.036;2023-09-07T14:18:14;3.15;;;1.50;;
19207;SDS011;9737;59.466;18.036;2023-09-07T14:20:43;7.93;;;1.58;;
19207;SDS011;9737;59.466;18.036;2023-09-07T14:23:11;5.20;;;1.55;;
19207;SDS011;9737;59.466;18.036;2023-09-07T14:25:39;6.28;;;1.60;;
19207;SDS011;9737;59.466;18.036;2023-09-07T14:28:08;5.45;;;1.63;;
19207;SDS011;9737;59.466;18.036;2023-09-07T14:30:36;4.53;;;1.30;;
19207;SDS011;9737;59.466;18.036;2023-09-07T14:33:04;3.05;;;1.58;;
19207;SDS011;9737;59.466;18.036;2023-09-07T14:35:33;3.00;;;1.20;;
19207;SDS011;9737;59.466;18.036;2023-09-07T14:38:03;8.13;;;1.58;;
19207;SDS011;9737;59.466;18.036;2023-09-07T14:40:32;5.82;;;1.60;;
19207;SDS011;9737;59.466;18.036;2023-09-07T14:42:59;5.32;;;1.40;;
19207;SDS011;9737;59.466;18.036;2023-09-07T14:45:28;8.13;;;1.55;;
19207;SDS011;9737;59.466;18.036;2023-09-07T14:47:55;8.63;;;1.60;;
19207;SDS011;9737;59.466;18.036;2023-09-07T14:50:24;6.68;;;1.42;;
19207;SDS011;9737;59.466;18.036;2023-09-07T14:52:51;5.93;;;1.80;;
19207;SDS011;9737;59.466;18.036;2023-09-07T14:55:21;7.03;;;1.90;;